createdAt,value
2024-04-09T00:00:07.986Z,991.65
2024-04-09T00:00:17.986Z,991.63
2024-04-09T00:00:28.018Z,991.60
2024-04-09T00:00:38.082Z,991.62
2024-04-09T00:00:47.951Z,991.65
2024-04-09T00:00:57.987Z,991.66
2024-04-09T00:01:08.001Z,991.63
2024-04-09T00:01:18.057Z,991.68
2024-04-09T00:01:38.083Z,991.66
2024-04-09T00:01:47.950Z,991.61
2024-04-09T00:01:57.946Z,991.65
2024-04-09T00:02:07.952Z,991.59
2024-04-09T00:02:17.938Z,991.58
2024-04-09T00:02:28.004Z,991.60
2024-04-09T00:02:48.015Z,991.68
2024-04-09T00:02:58.046Z,991.61
2024-04-09T00:03:08.688Z,991.61
2024-04-09T00:03:18.218Z,991.59
2024-04-09T00:03:28.318Z,991.54
2024-04-09T00:03:38.164Z,991.56
2024-04-09T00:03:58.380Z,991.59
2024-04-09T00:04:07.982Z,991.60
2024-04-09T00:04:18.150Z,991.54
2024-04-09T00:04:28.049Z,991.58
2024-04-09T00:04:38.080Z,991.49
2024-04-09T00:04:47.981Z,991.57
2024-04-09T00:04:58.027Z,991.64
2024-04-09T00:05:18.023Z,991.62
2024-04-09T00:05:27.933Z,991.56
2024-04-09T00:05:38.026Z,991.51
2024-04-09T00:05:47.946Z,991.54
2024-04-09T00:05:58.045Z,991.56
2024-04-09T00:06:07.962Z,991.59
2024-04-09T00:06:28.000Z,991.58
2024-04-09T00:06:38.250Z,991.60
2024-04-09T00:06:47.937Z,991.60
2024-04-09T00:06:57.948Z,991.57
2024-04-09T00:07:08.006Z,991.63
2024-04-09T00:07:17.965Z,991.54
2024-04-09T00:07:37.917Z,991.61
2024-04-09T00:07:47.953Z,991.59
2024-04-09T00:07:57.909Z,991.60
2024-04-09T00:08:07.926Z,991.60
2024-04-09T00:08:18.239Z,991.58
2024-04-09T00:08:27.924Z,991.58
2024-04-09T00:08:37.931Z,991.60
2024-04-09T00:08:57.978Z,991.58
2024-04-09T00:09:07.997Z,991.58
2024-04-09T00:09:18.094Z,991.48
2024-04-09T00:09:27.985Z,991.53
2024-04-09T00:09:38.010Z,991.46
2024-04-09T00:09:47.941Z,991.47
2024-04-09T00:09:57.948Z,991.47
2024-04-09T00:10:17.899Z,991.48
2024-04-09T00:10:27.932Z,991.56
2024-04-09T00:10:37.958Z,991.53
2024-04-09T00:10:47.980Z,991.55
2024-04-09T00:10:57.900Z,991.53
2024-04-09T00:11:07.967Z,991.57
2024-04-09T00:11:17.979Z,991.54
2024-04-09T00:11:28.085Z,991.52
2024-04-09T00:11:47.990Z,991.42
2024-04-09T00:11:58.228Z,991.47
2024-04-09T00:12:08.037Z,991.47
2024-04-09T00:12:17.906Z,991.52
2024-04-09T00:12:27.977Z,991.48
2024-04-09T00:12:38.062Z,991.48
2024-04-09T00:12:57.942Z,991.55
2024-04-09T00:13:07.930Z,991.46
2024-04-09T00:13:17.887Z,991.49
2024-04-09T00:13:27.917Z,991.53
2024-04-09T00:13:37.905Z,991.49
2024-04-09T00:13:47.902Z,991.48
2024-04-09T00:14:07.888Z,991.49
2024-04-09T00:14:17.918Z,991.44
2024-04-09T00:14:27.882Z,991.47
2024-04-09T00:14:37.941Z,991.36
2024-04-09T00:14:47.899Z,991.40
2024-04-09T00:14:57.931Z,991.40
2024-04-09T00:15:08.040Z,991.46
2024-04-09T00:15:27.980Z,991.47
2024-04-09T00:15:38.142Z,991.44
2024-04-09T00:15:47.896Z,991.49
2024-04-09T00:15:58.038Z,991.43
2024-04-09T00:16:07.892Z,991.47
2024-04-09T00:16:17.905Z,991.47
2024-04-09T00:16:37.876Z,991.47
2024-04-09T00:16:47.925Z,991.39
2024-04-09T00:16:57.936Z,991.29
2024-04-09T00:17:07.910Z,991.41
2024-04-09T00:17:17.952Z,991.43
2024-04-09T00:17:27.966Z,991.44
2024-04-09T00:17:37.998Z,991.49
2024-04-09T00:17:58.058Z,991.44
2024-04-09T00:18:08.062Z,991.46
2024-04-09T00:18:18.004Z,991.50
2024-04-09T00:18:28.185Z,991.41
2024-04-09T00:18:38.106Z,991.47
2024-04-09T00:18:48.032Z,991.52
2024-04-09T00:19:08.018Z,991.45
2024-04-09T00:19:17.890Z,991.51
2024-04-09T00:19:27.950Z,991.46
2024-04-09T00:19:38.003Z,991.44
2024-04-09T00:19:47.857Z,991.42
2024-04-09T00:19:57.864Z,991.44
2024-04-09T00:20:17.848Z,991.47
2024-04-09T00:20:27.875Z,991.38
2024-04-09T00:20:37.870Z,991.41
2024-04-09T00:20:47.928Z,991.44
2024-04-09T00:20:57.988Z,991.41
2024-04-09T00:21:08.003Z,991.45
2024-04-09T00:21:17.922Z,991.39
2024-04-09T00:21:28.521Z,991.40
2024-04-09T00:21:37.945Z,991.44
2024-04-09T00:21:57.892Z,991.49
2024-04-09T00:22:07.851Z,991.44
2024-04-09T00:22:17.858Z,991.46
2024-04-09T00:22:27.867Z,991.44
2024-04-09T00:22:37.890Z,991.48
2024-04-09T00:22:47.887Z,991.45
2024-04-09T00:23:07.846Z,991.37
2024-04-09T00:23:18.271Z,991.47
2024-04-09T00:23:30.448Z,991.46
2024-04-09T00:23:37.894Z,991.38
2024-04-09T00:23:47.852Z,991.36
2024-04-09T00:23:57.992Z,991.37
2024-04-09T00:24:07.853Z,991.44
2024-04-09T00:24:27.896Z,991.45
2024-04-09T00:24:38.004Z,991.47
2024-04-09T00:24:47.852Z,991.44
2024-04-09T00:24:57.845Z,991.40
2024-04-09T00:25:07.837Z,991.44
2024-04-09T00:25:17.859Z,991.42
2024-04-09T00:25:37.985Z,991.38
2024-04-09T00:25:47.880Z,991.43
2024-04-09T00:25:57.847Z,991.40
2024-04-09T00:26:07.843Z,991.35
2024-04-09T00:26:17.889Z,991.29
2024-04-09T00:26:27.825Z,991.42
2024-04-09T00:26:37.863Z,991.43
2024-04-09T00:26:57.860Z,991.40
2024-04-09T00:27:07.926Z,991.32
2024-04-09T00:27:17.910Z,991.36
2024-04-09T00:27:27.904Z,991.38
2024-04-09T00:27:40.737Z,991.36
2024-04-09T00:27:47.949Z,991.46
2024-04-09T00:28:07.859Z,991.42
2024-04-09T00:28:17.826Z,991.36
2024-04-09T00:28:27.832Z,991.36
2024-04-09T00:28:37.861Z,991.41
2024-04-09T00:28:47.839Z,991.43
2024-04-09T00:28:58.449Z,991.41
2024-04-09T00:29:17.820Z,991.39
2024-04-09T00:29:27.832Z,991.33
2024-04-09T00:29:37.854Z,991.35
2024-04-09T00:29:48.455Z,991.38
2024-04-09T00:29:57.875Z,991.44
2024-04-09T00:30:07.923Z,991.32
2024-04-09T00:30:27.936Z,991.34
2024-04-09T00:30:37.965Z,991.31
2024-04-09T00:30:47.841Z,991.32
2024-04-09T00:30:57.839Z,991.31
2024-04-09T00:31:07.835Z,991.37
2024-04-09T00:31:17.842Z,991.39
2024-04-09T00:31:27.877Z,991.36
2024-04-09T00:31:37.857Z,991.39
2024-04-09T00:31:47.904Z,991.38
2024-04-09T00:31:57.891Z,991.41
2024-04-09T00:32:17.812Z,991.40
2024-04-09T00:32:27.869Z,991.38
2024-04-09T00:32:37.989Z,991.30
2024-04-09T00:32:47.913Z,991.34
2024-04-09T00:32:57.976Z,991.39
2024-04-09T00:33:07.922Z,991.37
2024-04-09T00:33:18.093Z,991.37
2024-04-09T00:33:37.942Z,991.45
2024-04-09T00:33:47.978Z,991.38
2024-04-09T00:33:58.086Z,991.39
2024-04-09T00:34:07.957Z,991.33
2024-04-09T00:34:17.908Z,991.31
2024-04-09T00:34:28.012Z,991.34
2024-04-09T00:34:48.130Z,991.30
2024-04-09T00:34:57.814Z,991.37
2024-04-09T00:35:07.816Z,991.31
2024-04-09T00:35:17.831Z,991.35
2024-04-09T00:35:27.802Z,991.39
2024-04-09T00:35:37.890Z,991.30
2024-04-09T00:35:47.834Z,991.33
2024-04-09T00:35:58.037Z,991.38
2024-04-09T00:36:17.912Z,991.29
2024-04-09T00:36:27.831Z,991.26
2024-04-09T00:36:37.959Z,991.35
2024-04-09T00:36:47.802Z,991.42
2024-04-09T00:36:57.807Z,991.31
2024-04-09T00:37:07.811Z,991.38
2024-04-09T00:37:27.821Z,991.35
2024-04-09T00:37:37.827Z,991.37
2024-04-09T00:37:48.479Z,991.40
2024-04-09T00:37:57.808Z,991.42
2024-04-09T00:38:08.199Z,991.44
2024-04-09T00:38:17.777Z,991.40
2024-04-09T00:38:27.804Z,991.44
2024-04-09T00:38:37.823Z,991.41
2024-04-09T00:38:57.928Z,991.42
2024-04-09T00:39:07.822Z,991.43
2024-04-09T00:39:17.867Z,991.43
2024-04-09T00:39:27.822Z,991.37
2024-04-09T00:39:37.843Z,991.37
2024-04-09T00:39:47.894Z,991.36
2024-04-09T00:39:57.804Z,991.32
2024-04-09T00:40:07.805Z,991.28
2024-04-09T00:40:27.789Z,991.26
2024-04-09T00:40:37.758Z,991.26
2024-04-09T00:40:47.787Z,991.33
2024-04-09T00:40:57.819Z,991.36
2024-04-09T00:41:07.798Z,991.38
2024-04-09T00:41:17.774Z,991.40
2024-04-09T00:41:27.822Z,991.44
2024-04-09T00:41:47.848Z,991.33
2024-04-09T00:41:58.625Z,991.43
2024-04-09T00:42:07.891Z,991.33
2024-04-09T00:42:17.878Z,991.34
2024-04-09T00:42:27.805Z,991.34
2024-04-09T00:42:37.785Z,991.39
2024-04-09T00:42:57.818Z,991.25
2024-04-09T00:43:08.583Z,991.38
2024-04-09T00:43:17.791Z,991.38
2024-04-09T00:43:27.769Z,991.42
2024-04-09T00:43:37.787Z,991.43
2024-04-09T00:43:47.797Z,991.40
2024-04-09T00:44:08.488Z,991.39
2024-04-09T00:44:17.910Z,991.40
2024-04-09T00:44:27.948Z,991.31
2024-04-09T00:44:37.787Z,991.40
2024-04-09T00:44:47.768Z,991.46
2024-04-09T00:44:57.775Z,991.43
2024-04-09T00:45:17.778Z,991.46
2024-04-09T00:45:27.835Z,991.43
2024-04-09T00:45:38.045Z,991.39
2024-04-09T00:45:47.795Z,991.35
2024-04-09T00:45:57.756Z,991.38
2024-04-09T00:46:07.764Z,991.42
2024-04-09T00:46:17.783Z,991.41
2024-04-09T00:46:37.803Z,991.28
2024-04-09T00:46:48.745Z,991.37
2024-04-09T00:46:57.850Z,991.40
2024-04-09T00:47:07.924Z,991.40
2024-04-09T00:47:17.879Z,991.43
2024-04-09T00:47:27.859Z,991.43
2024-04-09T00:47:37.916Z,991.37
2024-04-09T00:47:57.895Z,991.30
2024-04-09T00:48:08.006Z,991.37
2024-04-09T00:48:18.030Z,991.36
2024-04-09T00:48:27.999Z,991.31
2024-04-09T00:48:37.897Z,991.44
2024-04-09T00:48:47.804Z,991.37
2024-04-09T00:48:58.565Z,991.42
2024-04-09T00:49:17.807Z,991.41
2024-04-09T00:49:27.795Z,991.41
2024-04-09T00:49:38.548Z,991.37
2024-04-09T00:49:47.769Z,991.32
2024-04-09T00:49:57.747Z,991.28
2024-04-09T00:50:07.743Z,991.29
2024-04-09T00:50:17.820Z,991.34
2024-04-09T00:50:27.732Z,991.34
2024-04-09T00:50:47.896Z,991.46
2024-04-09T00:50:58.587Z,991.44
2024-04-09T00:51:07.802Z,991.46
2024-04-09T00:51:17.777Z,991.41
2024-04-09T00:51:27.802Z,991.40
2024-04-09T00:51:37.789Z,991.38
2024-04-09T00:51:47.791Z,991.34
2024-04-09T00:52:07.800Z,991.34
2024-04-09T00:52:17.844Z,991.28
2024-04-09T00:52:27.793Z,991.30
2024-04-09T00:52:37.729Z,991.38
2024-04-09T00:52:47.763Z,991.32
2024-04-09T00:52:57.724Z,991.36
2024-04-09T00:53:17.812Z,991.44
2024-04-09T00:53:27.726Z,991.40
2024-04-09T00:53:37.869Z,991.37
2024-04-09T00:53:47.751Z,991.33
2024-04-09T00:53:57.721Z,991.33
2024-04-09T00:54:07.770Z,991.38
2024-04-09T00:54:17.801Z,991.41
2024-04-09T00:54:27.747Z,991.37
2024-04-09T00:54:47.782Z,991.36
2024-04-09T00:54:57.712Z,991.40
2024-04-09T00:55:07.736Z,991.37
2024-04-09T00:55:17.762Z,991.38
2024-04-09T00:55:27.718Z,991.43
2024-04-09T00:55:37.744Z,991.29
2024-04-09T00:55:58.478Z,991.39
2024-04-09T00:56:07.726Z,991.43
2024-04-09T00:56:17.775Z,991.42
2024-04-09T00:56:27.733Z,991.39
2024-04-09T00:56:37.750Z,991.37
2024-04-09T00:56:47.720Z,991.29
2024-04-09T00:57:08.076Z,991.35
2024-04-09T00:57:18.151Z,991.36
2024-04-09T00:57:27.843Z,991.39
2024-04-09T00:57:37.756Z,991.36
2024-04-09T00:57:47.713Z,991.33
2024-04-09T00:57:57.785Z,991.39
2024-04-09T00:58:17.705Z,991.42
2024-04-09T00:58:27.709Z,991.41
2024-04-09T00:58:37.718Z,991.40
2024-04-09T00:58:47.693Z,991.37
2024-04-09T00:58:57.714Z,991.37
2024-04-09T00:59:07.704Z,991.39
2024-04-09T00:59:27.691Z,991.37
2024-04-09T00:59:37.686Z,991.36
2024-04-09T00:59:47.703Z,991.31
2024-04-09T00:59:57.780Z,991.37
2024-04-09T01:00:07.768Z,991.30
2024-04-09T01:00:17.842Z,991.38
2024-04-09T01:00:27.732Z,991.41
2024-04-09T01:00:37.804Z,991.32
2024-04-09T01:00:48.058Z,991.32
2024-04-09T01:00:57.799Z,991.38
2024-04-09T01:01:18.019Z,991.42
2024-04-09T01:01:27.826Z,991.37
2024-04-09T01:01:37.679Z,991.34
2024-04-09T01:01:47.795Z,991.42
2024-04-09T01:01:57.690Z,991.28
2024-04-09T01:02:07.754Z,991.29
2024-04-09T01:02:17.875Z,991.38
2024-04-09T01:02:28.077Z,991.33
2024-04-09T01:02:47.783Z,991.37
2024-04-09T01:02:57.837Z,991.39
2024-04-09T01:03:08.065Z,991.34
2024-04-09T01:03:17.968Z,991.37
2024-04-09T01:03:28.206Z,991.21
2024-04-09T01:03:37.873Z,991.29
2024-04-09T01:03:57.800Z,991.43
2024-04-09T01:04:07.776Z,991.37
2024-04-09T01:04:17.815Z,991.37
2024-04-09T01:04:27.941Z,991.46
2024-04-09T01:04:37.792Z,991.36
2024-04-09T01:04:47.726Z,991.38
2024-04-09T01:05:07.687Z,991.37
2024-04-09T01:05:17.747Z,991.39
2024-04-09T01:05:27.686Z,991.35
2024-04-09T01:05:37.666Z,991.38
2024-04-09T01:05:47.704Z,991.34
2024-04-09T01:05:57.702Z,991.31
2024-04-09T01:06:07.750Z,991.20
2024-04-09T01:06:27.767Z,991.36
2024-04-09T01:06:37.774Z,991.36
2024-04-09T01:06:47.680Z,991.35
2024-04-09T01:06:57.689Z,991.35
2024-04-09T01:07:07.701Z,991.33
2024-04-09T01:07:17.711Z,991.35
2024-04-09T01:07:37.733Z,991.40
2024-04-09T01:07:47.662Z,991.35
2024-04-09T01:07:57.725Z,991.35
2024-04-09T01:08:07.734Z,991.37
2024-04-09T01:08:17.667Z,991.34
2024-04-09T01:08:27.697Z,991.24
2024-04-09T01:08:47.792Z,991.32
2024-04-09T01:08:57.790Z,991.27
2024-04-09T01:09:07.702Z,991.23
2024-04-09T01:09:17.765Z,991.31
2024-04-09T01:09:27.706Z,991.32
2024-04-09T01:09:37.733Z,991.34
2024-04-09T01:09:57.656Z,991.39
2024-04-09T01:10:07.648Z,991.31
2024-04-09T01:10:17.659Z,991.33
2024-04-09T01:10:27.668Z,991.27
2024-04-09T01:10:38.545Z,991.35
2024-04-09T01:10:47.707Z,991.31
2024-04-09T01:10:57.737Z,991.29
2024-04-09T01:11:17.700Z,991.22
2024-04-09T01:11:27.830Z,991.29
2024-04-09T01:11:37.676Z,991.34
2024-04-09T01:11:47.689Z,991.38
2024-04-09T01:11:57.732Z,991.35
2024-04-09T01:12:07.868Z,991.28
2024-04-09T01:12:17.687Z,991.31
2024-04-09T01:12:27.787Z,991.37
2024-04-09T01:12:37.730Z,991.40
2024-04-09T01:12:47.711Z,991.36
2024-04-09T01:13:07.639Z,991.35
2024-04-09T01:13:17.671Z,991.39
2024-04-09T01:13:27.658Z,991.33
2024-04-09T01:13:37.746Z,991.41
2024-04-09T01:13:47.648Z,991.34
2024-04-09T01:13:57.813Z,991.35
2024-04-09T01:14:07.661Z,991.33
2024-04-09T01:14:29.396Z,991.26
2024-04-09T01:14:37.651Z,991.33
2024-04-09T01:14:47.680Z,991.38
2024-04-09T01:14:57.681Z,991.35
2024-04-09T01:15:07.655Z,991.40
2024-04-09T01:15:17.709Z,991.24
2024-04-09T01:15:27.690Z,991.23
2024-04-09T01:15:37.889Z,991.33
2024-04-09T01:15:57.630Z,991.26
2024-04-09T01:16:07.629Z,991.35
2024-04-09T01:16:17.676Z,991.36
2024-04-09T01:16:27.655Z,991.35
2024-04-09T01:16:37.650Z,991.34
2024-04-09T01:16:47.708Z,991.28
2024-04-09T01:16:57.704Z,991.33
2024-04-09T01:17:08.800Z,991.28
2024-04-09T01:17:17.772Z,991.36
2024-04-09T01:17:37.699Z,991.33
2024-04-09T01:17:47.751Z,991.32
2024-04-09T01:17:57.854Z,991.29
2024-04-09T01:18:07.716Z,991.35
2024-04-09T01:18:17.792Z,991.32
2024-04-09T01:18:27.697Z,991.30
2024-04-09T01:18:47.695Z,991.33
2024-04-09T01:18:57.755Z,991.32
2024-04-09T01:19:07.863Z,991.32
2024-04-09T01:19:17.618Z,991.19
2024-04-09T01:19:27.775Z,991.24
2024-04-09T01:19:38.691Z,991.25
2024-04-09T01:19:47.662Z,991.26
2024-04-09T01:19:57.671Z,991.31
2024-04-09T01:20:17.641Z,991.33
2024-04-09T01:20:27.690Z,991.37
2024-04-09T01:20:37.635Z,991.35
2024-04-09T01:20:47.708Z,991.33
2024-04-09T01:20:57.685Z,991.26
2024-04-09T01:21:07.684Z,991.23
2024-04-09T01:21:17.714Z,991.22
2024-04-09T01:21:37.706Z,991.22
2024-04-09T01:21:47.600Z,991.24
2024-04-09T01:21:57.688Z,991.17
2024-04-09T01:22:07.622Z,991.29
2024-04-09T01:22:18.505Z,991.29
2024-04-09T01:22:27.638Z,991.34
2024-04-09T01:22:47.658Z,991.34
2024-04-09T01:22:57.591Z,991.30
2024-04-09T01:23:07.653Z,991.30
2024-04-09T01:23:17.615Z,991.29
2024-04-09T01:23:27.623Z,991.28
2024-04-09T01:23:37.672Z,991.35
2024-04-09T01:23:57.639Z,991.18
2024-04-09T01:24:07.632Z,991.28
2024-04-09T01:24:17.659Z,991.28
2024-04-09T01:24:27.663Z,991.33
2024-04-09T01:24:37.651Z,991.31
2024-04-09T01:24:47.629Z,991.22
2024-04-09T01:24:57.611Z,991.25
2024-04-09T01:25:07.613Z,991.30
2024-04-09T01:25:17.649Z,991.24
2024-04-09T01:25:37.614Z,991.27
2024-04-09T01:25:47.623Z,991.22
2024-04-09T01:25:58.493Z,991.26
2024-04-09T01:26:07.596Z,991.34
2024-04-09T01:26:17.630Z,991.31
2024-04-09T01:26:27.577Z,991.31
2024-04-09T01:26:37.631Z,991.28
2024-04-09T01:26:47.643Z,991.31
2024-04-09T01:27:07.637Z,991.30
2024-04-09T01:27:17.728Z,991.36
2024-04-09T01:27:27.622Z,991.33
2024-04-09T01:27:37.607Z,991.30
2024-04-09T01:27:47.630Z,991.23
2024-04-09T01:27:57.611Z,991.27
2024-04-09T01:28:07.630Z,991.32
2024-04-09T01:28:17.815Z,991.32
2024-04-09T01:28:27.606Z,991.32
2024-04-09T01:28:37.700Z,991.25
2024-04-09T01:28:57.586Z,991.34
2024-04-09T01:29:07.579Z,991.30
2024-04-09T01:29:17.597Z,991.32
2024-04-09T01:29:28.514Z,991.30
2024-04-09T01:29:37.615Z,991.30
2024-04-09T01:29:47.561Z,991.33
2024-04-09T01:29:57.616Z,991.34
2024-04-09T01:30:07.722Z,991.31
2024-04-09T01:30:17.652Z,991.35
2024-04-09T01:30:37.717Z,991.34
2024-04-09T01:30:47.607Z,991.33
2024-04-09T01:30:57.560Z,991.31
2024-04-09T01:31:07.686Z,991.27
2024-04-09T01:31:17.571Z,991.18
2024-04-09T01:31:27.573Z,991.31
2024-04-09T01:31:47.591Z,991.38
2024-04-09T01:31:57.568Z,991.36
2024-04-09T01:32:07.566Z,991.28
2024-04-09T01:32:17.665Z,991.38
2024-04-09T01:32:27.649Z,991.33
2024-04-09T01:32:37.610Z,991.32
2024-04-09T01:32:47.880Z,991.34
2024-04-09T01:32:57.724Z,991.33
2024-04-09T01:33:17.805Z,991.25
2024-04-09T01:33:27.716Z,991.30
2024-04-09T01:33:38.558Z,991.34
2024-04-09T01:33:47.670Z,991.34
2024-04-09T01:33:57.712Z,991.30
2024-04-09T01:34:07.769Z,991.24
2024-04-09T01:34:27.664Z,991.33
2024-04-09T01:34:37.583Z,991.35
2024-04-09T01:34:47.543Z,991.40
2024-04-09T01:34:57.576Z,991.30
2024-04-09T01:35:07.569Z,991.30
2024-04-09T01:35:17.621Z,991.27
2024-04-09T01:35:37.549Z,991.32
2024-04-09T01:35:47.578Z,991.36
2024-04-09T01:35:57.655Z,991.33
2024-04-09T01:36:07.630Z,991.26
2024-04-09T01:36:17.571Z,991.33
2024-04-09T01:36:27.578Z,991.35
2024-04-09T01:36:47.581Z,991.34
2024-04-09T01:36:57.531Z,991.36
2024-04-09T01:37:07.625Z,991.29
2024-04-09T01:37:17.687Z,991.38
2024-04-09T01:37:28.568Z,991.31
2024-04-09T01:37:38.596Z,991.38
2024-04-09T01:37:47.610Z,991.31
2024-04-09T01:37:57.636Z,991.25
2024-04-09T01:38:17.605Z,991.27
2024-04-09T01:38:27.549Z,991.43
2024-04-09T01:38:38.039Z,991.36
2024-04-09T01:38:47.522Z,991.33
2024-04-09T01:38:58.532Z,991.31
2024-04-09T01:39:07.620Z,991.37
2024-04-09T01:39:27.605Z,991.35
2024-04-09T01:39:37.564Z,991.24
2024-04-09T01:39:47.515Z,991.25
2024-04-09T01:39:57.557Z,991.27
2024-04-09T01:40:07.651Z,991.29
2024-04-09T01:40:17.630Z,991.33
2024-04-09T01:40:37.557Z,991.34
2024-04-09T01:40:47.532Z,991.30
2024-04-09T01:40:57.570Z,991.35
2024-04-09T01:41:07.564Z,991.37
2024-04-09T01:41:18.481Z,991.34
2024-04-09T01:41:27.515Z,991.34
2024-04-09T01:41:47.533Z,991.23
2024-04-09T01:41:57.637Z,991.25
2024-04-09T01:42:07.556Z,991.37
2024-04-09T01:42:17.717Z,991.35
2024-04-09T01:42:27.601Z,991.33
2024-04-09T01:42:37.601Z,991.35
2024-04-09T01:42:47.541Z,991.32
2024-04-09T01:43:07.515Z,991.31
2024-04-09T01:43:17.529Z,991.29
2024-04-09T01:43:27.525Z,991.33
2024-04-09T01:43:37.521Z,991.30
2024-04-09T01:43:47.608Z,991.32
2024-04-09T01:43:57.533Z,991.21
2024-04-09T01:44:18.542Z,991.30
2024-04-09T01:44:27.512Z,991.23
2024-04-09T01:44:37.513Z,991.22
2024-04-09T01:44:47.508Z,991.27
2024-04-09T01:44:57.532Z,991.31
2024-04-09T01:45:07.560Z,991.33
2024-04-09T01:45:27.630Z,991.34
2024-04-09T01:45:39.732Z,991.30
2024-04-09T01:45:47.760Z,991.27
2024-04-09T01:45:57.528Z,991.27
2024-04-09T01:46:07.520Z,991.29
2024-04-09T01:46:17.516Z,991.30
2024-04-09T01:46:37.565Z,991.33
2024-04-09T01:46:47.521Z,991.35
2024-04-09T01:46:57.552Z,991.34
2024-04-09T01:47:07.561Z,991.29
2024-04-09T01:47:17.596Z,991.37
2024-04-09T01:47:27.598Z,991.31
2024-04-09T01:47:47.580Z,991.26
2024-04-09T01:47:57.580Z,991.30
2024-04-09T01:48:07.593Z,991.31
2024-04-09T01:48:17.644Z,991.33
2024-04-09T01:48:27.612Z,991.32
2024-04-09T01:48:37.646Z,991.30
2024-04-09T01:48:57.600Z,991.34
2024-04-09T01:49:07.530Z,991.33
2024-04-09T01:49:17.509Z,991.32
2024-04-09T01:49:27.496Z,991.28
2024-04-09T01:49:37.506Z,991.28
2024-04-09T01:49:47.490Z,991.29
2024-04-09T01:49:58.041Z,991.30
2024-04-09T01:50:17.501Z,991.38
2024-04-09T01:50:27.513Z,991.37
2024-04-09T01:50:37.469Z,991.38
2024-04-09T01:50:47.486Z,991.39
2024-04-09T01:50:57.662Z,991.40
2024-04-09T01:51:07.512Z,991.36
2024-04-09T01:51:17.503Z,991.43
2024-04-09T01:51:27.571Z,991.41
2024-04-09T01:51:37.586Z,991.40
2024-04-09T01:51:47.497Z,991.44
2024-04-09T01:52:07.507Z,991.36
2024-04-09T01:52:17.502Z,991.37
2024-04-09T01:52:27.520Z,991.40
2024-04-09T01:52:37.464Z,991.47
2024-04-09T01:52:47.500Z,991.40
2024-04-09T01:52:57.485Z,991.35
2024-04-09T01:53:17.583Z,991.46
2024-04-09T01:53:27.470Z,991.37
2024-04-09T01:53:37.459Z,991.43
2024-04-09T01:53:47.488Z,991.38
2024-04-09T01:53:57.630Z,991.40
2024-04-09T01:54:07.584Z,991.42
2024-04-09T01:54:27.526Z,991.40
2024-04-09T01:54:37.557Z,991.40
2024-04-09T01:54:47.460Z,991.32
2024-04-09T01:54:57.452Z,991.32
2024-04-09T01:55:07.467Z,991.34
2024-04-09T01:55:17.591Z,991.42
2024-04-09T01:55:40.043Z,991.43
2024-04-09T01:55:47.512Z,991.45
2024-04-09T01:55:57.470Z,991.30
2024-04-09T01:56:07.559Z,991.33
2024-04-09T01:56:17.464Z,991.38
2024-04-09T01:56:27.473Z,991.30
2024-04-09T01:56:37.482Z,991.36
2024-04-09T01:56:58.077Z,991.42
2024-04-09T01:57:07.513Z,991.48
2024-04-09T01:57:17.612Z,991.43
2024-04-09T01:57:27.484Z,991.43
2024-04-09T01:57:38.038Z,991.36
2024-04-09T01:57:47.446Z,991.28
2024-04-09T01:58:07.495Z,991.33
2024-04-09T01:58:17.438Z,991.31
2024-04-09T01:58:27.453Z,991.37
2024-04-09T01:58:37.443Z,991.35
2024-04-09T01:58:47.472Z,991.41
2024-04-09T01:58:58.000Z,991.39
2024-04-09T01:59:17.551Z,991.35
2024-04-09T01:59:27.461Z,991.28
2024-04-09T01:59:37.441Z,991.33
2024-04-09T01:59:47.479Z,991.41
2024-04-09T01:59:57.555Z,991.39
2024-04-09T02:00:07.561Z,991.41
2024-04-09T02:00:27.554Z,991.41
2024-04-09T02:00:37.648Z,991.43
2024-04-09T02:00:47.494Z,991.41
2024-04-09T02:00:57.635Z,991.44
2024-04-09T02:01:07.600Z,991.28
2024-04-09T02:01:17.475Z,991.38
2024-04-09T02:01:27.545Z,991.40
2024-04-09T02:01:47.446Z,991.38
2024-04-09T02:01:57.454Z,991.35
2024-04-09T02:02:07.440Z,991.37
2024-04-09T02:02:17.512Z,991.27
2024-04-09T02:02:27.584Z,991.31
2024-04-09T02:02:37.512Z,991.28
2024-04-09T02:02:58.303Z,991.31
2024-04-09T02:03:07.689Z,991.38
2024-04-09T02:03:17.582Z,991.44
2024-04-09T02:03:27.590Z,991.43
2024-04-09T02:03:37.538Z,991.26
2024-04-09T02:03:48.073Z,991.34
2024-04-09T02:04:07.518Z,991.26
2024-04-09T02:04:17.595Z,991.28
2024-04-09T02:04:27.640Z,991.41
2024-04-09T02:04:37.542Z,991.40
2024-04-09T02:04:47.500Z,991.40
2024-04-09T02:04:57.443Z,991.38
2024-04-09T02:05:17.417Z,991.43
2024-04-09T02:05:27.404Z,991.49
2024-04-09T02:05:37.446Z,991.39
2024-04-09T02:05:47.403Z,991.36
2024-04-09T02:05:57.504Z,991.42
2024-04-09T02:06:07.456Z,991.28
2024-04-09T02:06:17.429Z,991.23
2024-04-09T02:06:27.479Z,991.31
2024-04-09T02:06:37.650Z,991.34
2024-04-09T02:06:47.534Z,991.41
2024-04-09T02:07:07.438Z,991.39
2024-04-09T02:07:17.427Z,991.37
2024-04-09T02:07:27.404Z,991.25
2024-04-09T02:07:37.413Z,991.43
2024-04-09T02:07:47.396Z,991.26
2024-04-09T02:07:57.426Z,991.40
2024-04-09T02:08:07.482Z,991.36
2024-04-09T02:08:17.448Z,991.27
2024-04-09T02:08:27.435Z,991.35
2024-04-09T02:08:47.423Z,991.36
2024-04-09T02:08:57.461Z,991.35
2024-04-09T02:09:07.568Z,991.34
2024-04-09T02:09:17.430Z,991.41
2024-04-09T02:09:27.444Z,991.37
2024-04-09T02:09:37.585Z,991.40
2024-04-09T02:09:57.386Z,991.29
2024-04-09T02:10:07.422Z,991.36
2024-04-09T02:10:18.023Z,991.35
2024-04-09T02:10:27.997Z,991.41
2024-04-09T02:10:37.482Z,991.35
2024-04-09T02:10:47.392Z,991.36
2024-04-09T02:11:07.396Z,991.40
2024-04-09T02:11:17.433Z,991.36
2024-04-09T02:11:27.481Z,991.32
2024-04-09T02:11:37.535Z,991.37
2024-04-09T02:11:47.447Z,991.42
2024-04-09T02:11:57.489Z,991.28
2024-04-09T02:12:17.437Z,991.38
2024-04-09T02:12:27.429Z,991.38
2024-04-09T02:12:37.459Z,991.33
2024-04-09T02:12:47.457Z,991.36
2024-04-09T02:12:57.383Z,991.33
2024-04-09T02:13:07.510Z,991.27
2024-04-09T02:13:17.376Z,991.39
2024-04-09T02:13:27.580Z,991.28
2024-04-09T02:13:37.417Z,991.37
2024-04-09T02:13:57.382Z,991.31
2024-04-09T02:14:07.407Z,991.38
2024-04-09T02:14:17.372Z,991.33
2024-04-09T02:14:29.330Z,991.38
2024-04-09T02:14:39.992Z,991.31
2024-04-09T02:14:47.557Z,991.36
2024-04-09T02:14:57.499Z,991.38
2024-04-09T02:15:07.556Z,991.37
2024-04-09T02:15:27.401Z,991.37
2024-04-09T02:15:37.435Z,991.18
2024-04-09T02:15:47.414Z,991.21
2024-04-09T02:15:57.381Z,991.26
2024-04-09T02:16:07.429Z,991.38
2024-04-09T02:16:17.460Z,991.29
2024-04-09T02:16:37.422Z,991.25
2024-04-09T02:16:47.455Z,991.32
2024-04-09T02:16:57.455Z,991.27
2024-04-09T02:17:07.379Z,991.33
2024-04-09T02:17:17.371Z,991.23
2024-04-09T02:17:27.389Z,991.23
2024-04-09T02:17:37.415Z,991.28
2024-04-09T02:17:47.494Z,991.37
2024-04-09T02:18:07.487Z,991.27
2024-04-09T02:18:17.452Z,991.25
2024-04-09T02:18:27.463Z,991.10
2024-04-09T02:18:37.457Z,991.23
2024-04-09T02:18:47.527Z,991.29
2024-04-09T02:18:57.484Z,991.30
2024-04-09T02:19:07.378Z,991.21
2024-04-09T02:19:27.384Z,991.23
2024-04-09T02:19:37.355Z,991.27
2024-04-09T02:19:47.374Z,991.24
2024-04-09T02:19:57.402Z,991.31
2024-04-09T02:20:07.366Z,991.25
2024-04-09T02:20:17.354Z,991.36
2024-04-09T02:20:27.417Z,991.28
2024-04-09T02:20:47.364Z,991.31
2024-04-09T02:20:57.410Z,991.32
2024-04-09T02:21:07.404Z,991.28
2024-04-09T02:21:17.387Z,991.28
2024-04-09T02:21:27.397Z,991.29
2024-04-09T02:21:37.473Z,991.28
2024-04-09T02:21:47.413Z,991.32
2024-04-09T02:21:57.437Z,991.32
2024-04-09T02:22:07.352Z,991.32
2024-04-09T02:22:18.043Z,991.30
2024-04-09T02:22:37.361Z,991.20
2024-04-09T02:22:48.012Z,991.30